createdAt,value
2018-07-06T07:48:07.534Z,98231.67
2018-07-06T07:50:19.789Z,98233.66
2018-07-06T07:51:23.741Z,98233.45
2018-07-06T07:52:29.570Z,98227.47
2018-07-06T10:33:39.657Z,98323.06
2018-07-06T10:34:42.673Z,98332.00
2018-07-06T10:35:45.131Z,98227.16
2018-07-06T10:36:47.587Z,98321.60
2018-07-06T10:37:50.861Z,98328.23
2018-07-06T10:40:23.316Z,98327.48
2018-07-06T10:45:00.601Z,98249.91
2018-07-06T10:47:16.642Z,98324.44
2018-07-06T10:48:19.070Z,98324.84
2018-07-06T10:49:22.342Z,98327.01
2018-07-06T10:50:24.772Z,98327.81
2018-07-06T10:51:28.893Z,98322.84
2018-07-06T10:52:31.332Z,98331.81
2018-07-06T10:55:52.867Z,98331.24
2018-07-06T10:57:01.547Z,98337.74
2018-07-06T10:58:07.824Z,98334.61
2018-07-06T11:00:18.427Z,98334.61
2018-07-06T11:01:20.900Z,98332.80
2018-07-06T11:02:23.382Z,98339.81
2018-07-06T11:03:27.685Z,98338.77
2018-07-06T11:04:31.026Z,98333.61
2018-07-06T11:05:33.487Z,98334.94
2018-07-06T11:06:35.940Z,98333.91
2018-07-06T20:01:25.711Z,98429.66
2018-07-06T20:03:06.992Z,98433.14
2018-07-06T20:04:11.213Z,98430.83
2018-07-06T20:05:15.475Z,98436.08
2018-07-06T20:06:19.757Z,98431.27
2018-07-06T20:07:24.519Z,98435.41
2018-07-06T20:08:26.948Z,98441.05
2018-07-06T20:09:29.389Z,98435.14
2018-07-06T20:10:32.261Z,98439.84
2018-07-06T20:11:35.351Z,98440.25
2018-07-06T20:12:37.775Z,98440.91
2018-07-06T20:13:40.565Z,98446.19
2018-07-06T20:14:43.801Z,98439.05
2018-07-06T20:15:46.239Z,98440.28
2018-07-06T20:16:49.467Z,98445.16
2018-07-06T20:17:52.685Z,98442.88
2018-07-06T20:18:55.160Z,98446.31
2018-07-06T20:19:57.925Z,98447.25
2018-07-06T20:22:07.907Z,98451.95
2018-07-06T20:23:12.072Z,98455.86
2018-07-06T20:24:14.537Z,98451.02
2018-07-06T20:25:18.615Z,98454.92
2018-07-06T22:31:56.086Z,98514.91
2018-07-06T22:32:58.595Z,98517.63
2018-07-06T22:34:01.943Z,98466.20
2018-07-06T22:35:04.419Z,98522.95
2018-07-06T22:36:08.234Z,98519.37
2018-07-06T22:37:11.294Z,98518.08
2018-07-06T22:38:14.345Z,98520.42
2018-07-06T22:39:16.815Z,98516.73
2018-07-06T22:40:19.319Z,98517.53
2018-07-06T22:41:21.773Z,98513.73
2018-07-06T22:42:24.229Z,98516.33
2018-07-06T22:43:26.951Z,98520.23
2018-07-06T22:44:30.133Z,98516.23
2018-07-06T22:45:34.235Z,98515.59
2018-07-06T22:46:38.521Z,98516.66
2018-07-06T22:47:40.961Z,98517.14
2018-07-06T22:48:43.379Z,98517.98
2018-07-06T22:49:46.600Z,98515.04
2018-07-06T22:50:49.579Z,98515.24
2018-07-06T22:51:55.720Z,98521.92
2018-07-06T22:52:58.304Z,98519.41
2018-07-06T22:54:01.411Z,98514.08
2018-07-06T22:55:05.280Z,98510.47
2018-07-06T22:56:09.782Z,98514.00
2018-07-06T22:57:12.379Z,98514.14
2018-07-06T22:58:15.567Z,98510.84
2018-07-06T22:59:18.857Z,98508.63
2018-07-06T23:00:21.294Z,98506.53
2018-07-06T23:01:24.381Z,98509.17
2018-07-06T23:02:27.114Z,98507.09
2018-07-06T23:03:30.500Z,98509.67
2018-07-06T23:04:32.935Z,98514.94
2018-07-06T23:05:36.577Z,98515.01
2018-07-06T23:06:39.760Z,98515.67
2018-07-06T23:07:43.734Z,98514.11
2018-07-06T23:08:46.476Z,98513.81
2018-07-06T23:09:49.639Z,98514.11
2018-07-06T23:10:55.876Z,98516.45
2018-07-06T23:11:58.339Z,98515.51
2018-07-06T23:13:00.765Z,98511.87
2018-07-06T23:14:03.334Z,98515.67
2018-07-06T23:15:07.028Z,98509.03
2018-07-06T23:16:09.446Z,98509.70
2018-07-06T23:17:11.871Z,98512.61
2018-07-06T23:18:14.288Z,98513.23
2018-07-06T23:19:17.223Z,98512.02
2018-07-06T23:20:19.641Z,98512.72
2018-07-06T23:21:22.421Z,98511.08
2018-07-06T23:22:24.868Z,98515.25
2018-07-06T23:23:27.305Z,98514.08
2018-07-06T23:24:29.754Z,98516.12
2018-07-06T23:25:32.208Z,98511.10
